Time;durP1;ratioP1;P1;durP2;ratioP2;P2;SDS_P1;SDS_P2;PMS_P1;PMS_P2;Temp;Humidity;BMP_temperature;BMP_pressure;BME280_temperature;BME280_humidity;BME280_pressure;Samples;Min_cycle;Max_cycle;Signal;HPM_P1;HPM_P2
2023/10/27 00:01:20;;;;;;;2.50;1.25;;;;;;;15.33;75.96;97817.88;4459636;32;34552;-80
2023/10/27 00:03:49;;;;;;;;;;;;;;;15.60;75.07;97819.69;4475152;31;34671;-82
2023/10/27 00:06:20;;;;;;;2.45;1.15;;;;;;;15.55;75.42;97816.53;4475638;32;34552;-80
2023/10/27 00:08:50;;;;;;;2.30;1.37;;;;;;;15.54;75.25;97810.47;4479800;32;33394;-79
2023/10/27 00:11:21;;;;;;;2.50;1.12;;;;;;;15.60;75.25;97806.63;4480066;31;33264;-80
2023/10/27 00:13:50;;;;;;;1.67;1.10;;;;;;;15.54;75.73;97802.62;4472295;32;33893;-79
2023/10/27 00:16:25;;;;;;;2.28;1.10;;;;;;;15.60;75.46;97806.63;4465138;31;33394;-80
2023/10/27 00:18:54;;;;;;;1.65;1.10;;;;;;;15.63;75.72;97803.81;4470626;32;33736;-81
2023/10/27 00:21:26;;;;;;;0.88;0.75;;;;;;;15.65;75.38;97801.94;4468780;31;33063;-80
2023/10/27 00:23:56;;;;;;;4.70;1.62;;;;;;;15.61;75.72;97797.87;4474026;32;33656;-79
2023/10/27 00:26:28;;;;;;;1.85;1.60;;;;;;;15.87;74.54;97796.19;4473355;32;34764;-79
2023/10/27 00:28:58;;;;;;;1.60;1.15;;;;;;;15.73;75.34;97791.88;4469936;32;33968;-81
2023/10/27 00:31:28;;;;;;;2.58;1.25;;;;;;;15.76;75.38;97783.84;4478146;32;32846;-79
2023/10/27 00:33:59;;;;;;;1.67;1.00;;;;;;;15.77;75.39;97788.09;4478776;32;34567;-80
2023/10/27 00:36:29;;;;;;;1.92;1.10;;;;;;;15.51;77.37;97795.00;4473871;32;33737;-81
2023/10/27 00:38:59;;;;;;;2.00;1.00;;;;;;;16.03;75.41;97785.59;4470132;32;34041;-79
2023/10/27 00:41:30;;;;;;;1.95;1.27;;;;;;;15.78;76.29;97781.13;4469820;32;33382;-78
2023/10/27 00:43:59;;;;;;;2.03;1.23;;;;;;;15.66;77.03;97781.88;4478174;32;33559;-81
2023/10/27 00:46:28;;;;;;;5.70;1.20;;;;;;;15.82;76.31;97785.19;4469894;32;34098;-80
2023/10/27 00:48:58;;;;;;;2.22;1.65;;;;;;;16.00;76.00;97791.84;4470800;32;33742;-83
2023/10/27 00:51:32;;;;;;;2.78;1.05;;;;;;;15.90;76.17;97789.91;4474234;32;33512;-78
2023/10/27 00:54:03;;;;;;;1.55;0.90;;;;;;;15.72;76.95;97787.56;4469217;32;33617;-79
2023/10/27 00:56:33;;;;;;;2.28;1.10;;;;;;;15.82;76.79;97786.97;4473821;32;34045;-81
2023/10/27 00:59:03;;;;;;;1.77;1.00;;;;;;;15.91;76.45;97789.00;4471574;32;33562;-79
2023/10/27 01:01:32;;;;;;;3.22;1.08;;;;;;;16.04;76.07;97795.09;4479263;32;32790;-80
2023/10/27 01:04:05;;;;;;;1.75;0.98;;;;;;;16.03;76.50;97787.38;4476745;32;33585;-80
2023/10/27 01:06:38;;;;;;;2.47;1.70;;;;;;;16.01;76.33;97782.22;4482534;32;33827;-81
2023/10/27 01:09:08;;;;;;;2.40;1.20;;;;;;;16.07;76.13;97787.06;4476587;31;33660;-79
2023/10/27 01:11:37;;;;;;;1.35;0.88;;;;;;;15.98;76.92;97785.06;4474972;32;33430;-80
2023/10/27 01:14:07;;;;;;;3.33;1.20;;;;;;;16.00;76.99;97781.38;4470948;32;33187;-81
2023/10/27 01:16:39;;;;;;;1.35;0.75;;;;;;;16.30;76.06;97782.91;4465980;32;33781;-81
2023/10/27 01:19:09;;;;;;;1.02;0.73;;;;;;;16.26;76.29;97776.22;4473876;32;35823;-80
2023/10/27 01:21:41;;;;;;;1.02;0.88;;;;;;;16.33;76.33;97776.63;4473571;31;32935;-82
2023/10/27 01:24:12;;;;;;;2.80;0.98;;;;;;;16.45;76.49;97778.41;4470955;32;34457;-81
2023/10/27 01:26:43;;;;;;;1.77;0.95;;;;;;;16.28;76.85;97773.47;4468553;31;33988;-81
2023/10/27 01:29:12;;;;;;;1.40;0.90;;;;;;;16.40;76.75;97762.19;4479376;31;33659;-83
2023/10/27 01:31:44;;;;;;;1.35;1.23;;;;;;;16.45;76.54;97761.88;4474489;32;34125;-82
2023/10/27 01:34:12;;;;;;;0.60;0.60;;;;;;;16.34;77.24;97758.22;4476476;32;33477;-81
2023/10/27 01:36:42;;;;;;;1.62;0.80;;;;;;;16.48;77.36;97759.03;4473464;32;33765;-82
2023/10/27 01:39:18;;;;;;;1.65;0.77;;;;;;;16.54;77.54;97756.03;4479521;31;33581;-83
2023/10/27 01:41:48;;;;;;;0.75;0.75;;;;;;;16.56;77.75;97752.34;4467320;32;34466;-81
2023/10/27 01:44:17;;;;;;;0.70;0.70;;;;;;;16.48;78.40;97751.19;4473172;32;34364;-84
2023/10/27 01:46:49;;;;;;;1.05;0.70;;;;;;;16.03;81.90;97750.75;4475157;32;33971;-80
2023/10/27 01:49:18;;;;;;;1.52;0.75;;;;;;;16.37;80.00;97742.28;4476013;32;33603;-82
2023/10/27 01:51:53;;;;;;;0.95;0.70;;;;;;;16.34;79.75;97734.66;4479902;31;33267;-81
2023/10/27 01:54:24;;;;;;;1.00;0.70;;;;;;;16.47;79.30;97734.66;4480686;32;34257;-81
2023/10/27 01:57:00;;;;;;;1.67;0.70;;;;;;;16.43;79.45;97730.59;4466756;32;34356;-80
2023/10/27 01:59:31;;;;;;;0.93;0.70;;;;;;;16.41;79.67;97724.63;4469039;32;33909;-82
2023/10/27 02:02:02;;;;;;;1.67;0.82;;;;;;;16.59;79.14;97723.34;4478238;32;33856;-79
2023/10/27 02:04:37;;;;;;;0.50;0.50;;;;;;;16.46;79.88;97733.00;4481840;32;33515;-82
2023/10/27 02:07:07;;;;;;;1.60;1.02;;;;;;;16.50;79.92;97723.13;4479910;32;34074;-82
2023/10/27 02:09:39;;;;;;;1.50;0.75;;;;;;;16.64;79.23;97717.78;4475389;32;33870;-78
2023/10/27 02:12:10;;;;;;;0.55;0.55;;;;;;;16.56;79.84;97717.50;4473302;32;32927;-80
2023/10/27 02:14:46;;;;;;;1.73;0.50;;;;;;;16.60;79.29;97711.94;4473125;32;34164;-81
2023/10/27 02:17:20;;;;;;;0.77;0.57;;;;;;;16.72;79.06;97706.78;4467188;32;34418;-80
2023/10/27 02:19:50;;;;;;;2.12;0.68;;;;;;;16.81;78.41;97708.78;4474669;32;34704;-81
2023/10/27 02:22:22;;;;;;;1.55;0.65;;;;;;;16.72;79.27;97704.16;4470100;32;33980;-80
2023/10/27 02:24:53;;;;;;;0.95;0.55;;;;;;;16.70;79.58;97695.59;4470011;32;34492;-79
2023/10/27 02:27:22;;;;;;;3.05;0.50;;;;;;;16.84;78.43;97692.84;4472383;32;33082;-82
2023/10/27 02:29:51;;;;;;;0.40;0.40;;;;;;;16.49;80.21;97693.50;4477240;32;34348;-80
2023/10/27 02:32:27;;;;;;;0.60;0.60;;;;;;;16.61;79.85;97692.66;4471179;32;33298;-80
2023/10/27 02:34:56;;;;;;;1.30;0.65;;;;;;;16.70;79.53;97692.97;4469214;32;33632;-82
2023/10/27 02:37:26;;;;;;;0.90;0.68;;;;;;;16.77;79.29;97696.84;4474716;31;33814;-80
2023/10/27 02:39:56;;;;;;;0.60;0.60;;;;;;;16.72;79.83;97696.31;4479564;32;34441;-80
2023/10/27 02:42:29;;;;;;;0.60;0.60;;;;;;;16.63;80.47;97690.78;4477125;31;32794;-79
2023/10/27 02:44:58;;;;;;;0.50;0.50;;;;;;;16.37;81.91;97679.50;4470660;31;34346;-82
2023/10/27 02:47:30;;;;;;;0.93;0.93;;;;;;;16.62;80.53;97681.25;4473410;32;33252;-82
2023/10/27 02:49:58;;;;;;;;;;;;;;;16.72;80.43;97673.59;4477974;31;33661;-81
2023/10/27 02:52:36;;;;;;;0.50;0.50;;;;;;;16.67;80.62;97680.09;4479545;32;33406;-82
2023/10/27 02:55:13;;;;;;;0.40;0.40;;;;;;;16.80;80.07;97679.16;4468240;32;34046;-81
2023/10/27 02:57:42;;;;;;;2.15;0.60;;;;;;;16.77;80.48;97676.72;4469051;32;33767;-79
2023/10/27 03:00:14;;;;;;;0.82;0.50;;;;;;;16.73;80.97;97666.56;4465442;32;33478;-78
2023/10/27 03:02:43;;;;;;;0.85;0.60;;;;;;;16.81;80.40;97666.88;4462568;32;33204;-82
2023/10/27 03:05:12;;;;;;;1.05;0.62;;;;;;;16.83;80.92;97657.97;4482063;32;34405;-79
2023/10/27 03:07:41;;;;;;;0.55;0.40;;;;;;;16.88;80.57;97664.69;4476799;32;33658;-81
2023/10/27 03:10:13;;;;;;;1.35;0.40;;;;;;;16.84;80.85;97657.03;4466722;32;35331;-81
2023/10/27 03:12:44;;;;;;;0.80;0.50;;;;;;;16.55;82.58;97656.47;4470275;32;34187;-78
2023/10/27 03:15:15;;;;;;;0.40;0.40;;;;;;;16.63;82.21;97648.06;4478554;32;34871;-83
2023/10/27 03:17:45;;;;;;;0.40;0.40;;;;;;;16.62;82.24;97643.75;4470506;32;33454;-80
2023/10/27 03:20:19;;;;;;;0.40;0.40;;;;;;;16.70;82.06;97630.97;4478679;32;34786;-80
2023/10/27 03:22:48;;;;;;;0.45;0.45;;;;;;;16.83;80.81;97629.16;4476180;32;33294;-81
2023/10/27 03:25:24;;;;;;;0.30;0.30;;;;;;;16.78;80.89;97625.19;4475988;32;33612;-82
2023/10/27 03:27:53;;;;;;;2.55;0.57;;;;;;;16.80;81.14;97620.72;4474330;32;34387;-81
2023/10/27 03:30:23;;;;;;;0.68;0.45;;;;;;;16.82;81.10;97621.44;4469925;32;33968;-80
2023/10/27 03:32:52;;;;;;;0.65;0.35;;;;;;;16.81;81.13;97614.50;4475516;32;33419;-81
2023/10/27 03:35:24;;;;;;;0.62;0.40;;;;;;;16.61;82.26;97605.44;4469557;32;31508;-82
2023/10/27 03:37:53;;;;;;;0.40;0.40;;;;;;;16.72;81.92;97609.91;4477657;32;34416;-80
2023/10/27 03:40:26;;;;;;;0.30;0.30;;;;;;;16.84;81.32;97606.44;4472905;32;33828;-80
2023/10/27 03:42:55;;;;;;;0.50;0.50;;;;;;;16.80;81.49;97597.16;4479768;32;33112;-82
2023/10/27 03:45:27;;;;;;;0.40;0.40;;;;;;;16.84;81.20;97594.19;4470699;32;33510;-81
2023/10/27 03:47:56;;;;;;;0.43;0.43;;;;;;;16.56;83.05;97590.06;4475065;32;34449;-81
2023/10/27 03:50:27;;;;;;;0.90;0.60;;;;;;;16.71;81.81;97590.75;4482343;32;34279;-80
2023/10/27 03:52:57;;;;;;;1.27;0.80;;;;;;;16.70;82.14;97588.25;4476403;32;33471;-81
2023/10/27 03:55:33;;;;;;;0.85;0.60;;;;;;;16.60;82.95;97578.44;4476543;32;33695;-80
2023/10/27 03:58:16;;;;;;;0.82;0.70;;;;;;;16.84;81.66;97578.47;4476338;32;34661;-81
2023/10/27 04:00:45;;;;;;;1.02;0.70;;;;;;;16.70;82.39;97560.28;4477029;32;33597;-81
2023/10/27 04:03:21;;;;;;;0.60;0.60;;;;;;;16.79;81.97;97556.19;4468704;32;33915;-81
2023/10/27 04:05:52;;;;;;;0.95;0.80;;;;;;;16.83;82.17;97550.59;4462445;32;33613;-82
2023/10/27 04:08:24;;;;;;;0.85;0.57;;;;;;;16.76;82.22;97540.66;4475977;32;33530;-81
2023/10/27 04:10:57;;;;;;;1.35;0.90;;;;;;;16.70;82.53;97541.97;4473528;32;32899;-82
2023/10/27 04:13:26;;;;;;;1.58;1.20;;;;;;;16.63;82.87;97532.88;4468577;32;33177;-81
2023/10/27 04:16:07;;;;;;;1.27;0.70;;;;;;;16.67;82.47;97534.31;4468297;32;33761;-81
2023/10/27 04:18:41;;;;;;;0.80;0.50;;;;;;;16.63;83.06;97528.47;4475605;32;34394;-81
2023/10/27 04:21:11;;;;;;;0.70;0.60;;;;;;;16.60;83.12;97518.22;4458574;32;33882;-82
2023/10/27 04:23:45;;;;;;;0.85;0.50;;;;;;;16.59;83.39;97510.47;4480900;32;33833;-83
2023/10/27 04:26:15;;;;;;;0.45;0.45;;;;;;;16.74;82.39;97504.09;4471161;31;33847;-82
2023/10/27 04:28:47;;;;;;;0.35;0.35;;;;;;;16.76;82.26;97506.63;4474757;32;35015;-81
2023/10/27 04:31:16;;;;;;;0.62;0.50;;;;;;;16.78;82.66;97496.88;4467750;32;33589;-83
2023/10/27 04:33:47;;;;;;;0.50;0.50;;;;;;;16.67;83.36;97489.78;4473535;32;33630;-81
2023/10/27 04:36:16;;;;;;;0.60;0.60;;;;;;;16.83;82.02;97487.75;4471706;32;34494;-82
2023/10/27 04:38:47;;;;;;;0.50;0.50;;;;;;;16.64;83.35;97484.78;4477833;32;33560;-82
2023/10/27 04:41:18;;;;;;;0.73;0.50;;;;;;;16.58;82.93;97477.41;4468222;32;34123;-82
2023/10/27 04:43:54;;;;;;;0.77;0.57;;;;;;;16.61;82.92;97475.38;4464563;32;32626;-82
2023/10/27 04:46:32;;;;;;;0.73;0.47;;;;;;;16.70;82.78;97460.78;4465467;32;34559;-82
2023/10/27 04:49:01;;;;;;;0.60;0.60;;;;;;;16.56;83.30;97453.13;4464803;32;33561;-82
2023/10/27 04:51:30;;;;;;;0.60;0.60;;;;;;;16.60;83.36;97449.34;4469183;32;88950;-83
2023/10/27 04:53:59;;;;;;;1.00;0.90;;;;;;;16.68;82.80;97430.44;4474937;32;33081;-83
2023/10/27 04:56:33;;;;;;;0.93;0.52;;;;;;;16.52;83.67;97426.31;4475660;32;33558;-83
2023/10/27 04:59:01;;;;;;;0.50;0.50;;;;;;;16.56;83.74;97424.31;4470694;32;33653;-83
2023/10/27 05:01:36;;;;;;;0.73;0.60;;;;;;;16.58;83.47;97425.87;4475212;32;34327;-82
2023/10/27 05:04:05;;;;;;;0.62;0.62;;;;;;;16.55;83.74;97426.13;4478765;32;33197;-83
2023/10/27 05:06:37;;;;;;;0.93;0.68;;;;;;;16.50;83.80;97427.38;4476197;32;33396;-84
2023/10/27 05:09:06;;;;;;;0.40;0.40;;;;;;;16.51;83.69;97414.19;4472756;32;33234;-83
2023/10/27 05:11:39;;;;;;;0.90;0.70;;;;;;;16.25;85.83;97415.28;4470515;32;33586;-84
2023/10/27 05:14:08;;;;;;;0.88;0.88;;;;;;;16.25;85.49;97408.25;4466446;32;31824;-83
2023/10/27 05:16:37;;;;;;;0.98;0.75;;;;;;;16.45;84.31;97409.41;4475206;32;33577;-83
2023/10/27 05:19:06;;;;;;;0.65;0.65;;;;;;;16.29;84.86;97407.09;4461750;32;33645;-84
2023/10/27 05:21:35;;;;;;;1.12;0.73;;;;;;;16.46;84.26;97398.00;4470020;32;33790;-83
2023/10/27 05:24:09;;;;;;;0.68;0.65;;;;;;;16.43;84.04;97400.84;4474469;32;34172;-83
2023/10/27 05:26:45;;;;;;;0.98;0.75;;;;;;;16.37;84.50;97403.91;4475938;32;32760;-83
2023/10/27 05:29:14;;;;;;;1.42;0.80;;;;;;;16.33;84.65;97397.22;4469681;32;33571;-85
2023/10/27 05:31:49;;;;;;;1.58;0.77;;;;;;;16.37;84.58;97396.88;4470237;32;33867;-84
2023/10/27 05:34:18;;;;;;;0.80;0.60;;;;;;;16.09;86.01;97378.91;4466905;32;33314;-84
2023/10/27 05:36:50;;;;;;;3.22;0.73;;;;;;;16.18;86.06;97383.47;4473235;32;32566;-83
2023/10/27 05:39:20;;;;;;;0.62;0.60;;;;;;;16.10;86.85;97375.38;4477650;32;34141;-83
2023/10/27 05:41:54;;;;;;;1.60;1.23;;;;;;;16.35;85.01;97377.00;4473029;32;33789;-82
2023/10/27 05:44:31;;;;;;;1.45;0.80;;;;;;;16.23;85.52;97365.66;4470346;32;34140;-84
2023/10/27 05:47:01;;;;;;;1.87;0.88;;;;;;;16.26;85.22;97367.22;4468840;32;33603;-84
2023/10/27 05:49:36;;;;;;;0.60;0.60;;;;;;;16.15;85.99;97370.63;4479118;32;33506;-84
2023/10/27 05:52:11;;;;;;;0.60;0.60;;;;;;;16.11;86.67;97366.56;4468411;32;34047;-85
2023/10/27 05:54:43;;;;;;;0.60;0.60;;;;;;;16.25;85.75;97369.00;4472319;32;31735;-82
2023/10/27 05:57:20;;;;;;;0.70;0.60;;;;;;;16.31;85.28;97371.19;4468094;31;34393;-84
2023/10/27 05:59:52;;;;;;;0.50;0.50;;;;;;;16.19;85.39;97354.59;4470313;32;34072;-83
2023/10/27 06:02:22;;;;;;;1.17;0.90;;;;;;;16.25;85.69;97355.09;4472256;32;33755;-83
2023/10/27 06:04:56;;;;;;;0.68;0.68;;;;;;;16.21;86.19;97351.84;4471891;32;32949;-84
2023/10/27 06:07:25;;;;;;;0.70;0.70;;;;;;;16.16;86.23;97340.91;4471771;32;33524;-84
2023/10/27 06:09:57;;;;;;;1.55;0.95;;;;;;;16.18;86.13;97344.25;4466602;32;33799;-83
2023/10/27 06:12:27;;;;;;;2.05;0.85;;;;;;;16.21;85.94;97337.03;4469131;32;33315;-84
2023/10/27 06:15:00;;;;;;;0.77;0.77;;;;;;;16.22;86.14;97324.75;4474598;32;32956;-84
2023/10/27 06:17:29;;;;;;;1.17;0.90;;;;;;;16.03;86.87;97320.03;4452703;32;33237;-84
2023/10/27 06:20:03;;;;;;;1.95;1.00;;;;;;;16.29;85.73;97315.50;4469706;32;34647;-83
2023/10/27 06:22:51;;;;;;;1.20;0.82;;;;;;;16.23;86.11;97313.34;4472558;32;33116;-84
2023/10/27 06:25:25;;;;;;;1.65;1.02;;;;;;;16.31;85.36;97307.53;4474382;32;33461;-82
2023/10/27 06:27:55;;;;;;;1.80;0.95;;;;;;;16.23;86.31;97307.28;4476066;32;33870;-84
2023/10/27 06:30:27;;;;;;;1.95;1.10;;;;;;;16.35;85.19;97301.97;4476413;32;33033;-84
2023/10/27 06:32:56;;;;;;;1.50;1.15;;;;;;;16.33;85.82;97305.63;4470710;32;34500;-84
2023/10/27 06:35:26;;;;;;;2.17;1.30;;;;;;;16.36;85.43;97302.81;4467639;32;32905;-84
2023/10/27 06:37:55;;;;;;;1.00;0.90;;;;;;;16.48;84.66;97298.41;4473305;32;33042;-85
2023/10/27 06:40:34;;;;;;;1.92;1.27;;;;;;;16.15;86.78;97287.75;4470930;32;35557;-83
2023/10/27 06:43:04;;;;;;;2.30;1.27;;;;;;;16.38;85.66;97291.28;4467964;32;34105;-84
2023/10/27 06:45:42;;;;;;;1.85;1.20;;;;;;;16.41;84.94;97295.44;4475843;32;33546;-82
2023/10/27 06:48:14;;;;;;;2.03;1.40;;;;;;;16.16;86.92;97288.59;4474574;32;34187;-82
2023/10/27 06:50:43;;;;;;;1.83;1.30;;;;;;;16.29;86.12;97297.19;4481322;32;33474;-81
2023/10/27 06:53:15;;;;;;;1.20;1.08;;;;;;;16.24;86.55;97295.84;4475534;32;34578;-82
2023/10/27 06:55:44;;;;;;;3.62;1.67;;;;;;;16.36;85.72;97287.13;4461797;32;33795;-82
2023/10/27 06:58:25;;;;;;;2.17;1.20;;;;;;;16.30;86.12;97271.87;4471296;32;33658;-83
2023/10/27 07:00:57;;;;;;;2.83;1.67;;;;;;;16.33;86.61;97274.25;4466859;32;33054;-84
2023/10/27 07:03:26;;;;;;;2.10;1.33;;;;;;;16.51;85.90;97270.25;4463753;31;33468;-82
2023/10/27 07:06:00;;;;;;;1.92;1.33;;;;;;;16.37;86.77;97270.47;4463311;31;33875;-84
2023/10/27 07:08:30;;;;;;;1.77;1.20;;;;;;;16.45;86.08;97267.25;4464919;31;33032;-84
2023/10/27 07:11:01;;;;;;;1.00;0.90;;;;;;;16.05;88.83;97265.03;4470052;32;33597;-83
2023/10/27 07:13:32;;;;;;;3.12;1.25;;;;;;;16.47;86.21;97268.81;4464896;32;33966;-83
2023/10/27 07:16:03;;;;;;;1.43;0.90;;;;;;;16.52;85.88;97248.34;4477084;32;34118;-82
2023/10/27 07:18:32;;;;;;;1.65;1.20;;;;;;;16.47;86.46;97254.88;4472960;32;33187;-84
2023/10/27 07:21:05;;;;;;;1.65;1.27;;;;;;;16.27;87.68;97259.84;4476957;32;34586;-82
2023/10/27 07:23:36;;;;;;;1.05;0.95;;;;;;;16.39;86.85;97256.31;4473193;32;33633;-83
2023/10/27 07:26:15;;;;;;;1.70;1.30;;;;;;;16.23;87.64;97247.94;4475846;32;32484;-84
2023/10/27 07:28:48;;;;;;;2.28;1.23;;;;;;;16.38;87.22;97230.25;4476565;32;32553;-85
2023/10/27 07:31:17;;;;;;;1.70;1.10;;;;;;;16.43;87.01;97233.38;4470950;32;34016;-84
2023/10/27 07:33:48;;;;;;;1.48;1.10;;;;;;;16.24;87.78;97212.13;4469949;32;33491;-83
2023/10/27 07:36:17;;;;;;;1.35;1.25;;;;;;;16.36;86.90;97216.47;4470856;32;33119;-83
2023/10/27 07:38:52;;;;;;;1.37;1.08;;;;;;;16.60;86.11;97216.38;4483500;32;34414;-82
2023/10/27 07:41:21;;;;;;;1.17;1.08;;;;;;;16.49;86.39;97216.34;4478084;32;33444;-84
2023/10/27 07:43:55;;;;;;;2.97;1.35;;;;;;;16.46;86.51;97211.37;4477685;32;33917;-82
2023/10/27 07:46:23;;;;;;;3.87;1.62;;;;;;;16.49;86.50;97221.59;4461921;32;33105;-82
2023/10/27 07:48:53;;;;;;;2.47;1.45;;;;;;;16.48;86.88;97215.53;4462576;32;34626;-83
2023/10/27 07:51:23;;;;;;;1.40;1.23;;;;;;;16.49;86.74;97214.56;4467937;32;33680;-82
2023/10/27 07:53:54;;;;;;;1.58;1.05;;;;;;;16.44;86.92;97219.31;4462986;32;32922;-82
2023/10/27 07:56:23;;;;;;;1.12;1.00;;;;;;;16.52;87.25;97198.63;4462786;32;33006;-81
2023/10/27 07:58:55;;;;;;;2.08;1.10;;;;;;;16.48;87.32;97191.97;4462619;32;34459;-85
2023/10/27 08:01:26;;;;;;;0.93;0.90;;;;;;;16.30;88.15;97196.81;4469760;32;34155;-84
2023/10/27 08:03:59;;;;;;;1.43;1.07;;;;;;;16.67;86.34;97190.53;4474715;32;33263;-83
2023/10/27 08:06:28;;;;;;;2.80;1.85;;;;;;;16.69;85.74;97181.59;4478532;32;33326;-84
2023/10/27 08:08:59;;;;;;;1.15;0.85;;;;;;;16.72;85.74;97186.63;4478729;32;33737;-82
2023/10/27 08:11:28;;;;;;;1.52;1.30;;;;;;;16.61;86.32;97181.37;4483541;32;34122;-83
2023/10/27 08:14:00;;;;;;;2.67;1.10;;;;;;;16.45;87.82;97170.44;4484235;32;33973;-85
2023/10/27 08:16:30;;;;;;;2.08;1.08;;;;;;;16.57;86.48;97166.84;4477955;32;34161;-82
2023/10/27 08:19:01;;;;;;;2.90;1.20;;;;;;;16.69;85.72;97167.69;4478387;32;33035;-82
2023/10/27 08:21:30;;;;;;;1.27;1.02;;;;;;;16.63;86.83;97155.94;4481362;32;33540;-83
2023/10/27 08:24:04;;;;;;;4.05;1.27;;;;;;;16.66;86.30;97160.91;4483666;32;33727;-83
2023/10/27 08:26:33;;;;;;;1.52;0.98;;;;;;;16.70;86.01;97151.88;4482859;32;32818;-83
2023/10/27 08:29:06;;;;;;;2.90;1.08;;;;;;;16.76;85.49;97155.78;4467602;32;32750;-84
2023/10/27 08:31:36;;;;;;;0.93;0.80;;;;;;;16.79;85.30;97158.19;4462479;32;34384;-82
2023/10/27 08:34:10;;;;;;;1.10;1.00;;;;;;;16.70;85.80;97148.44;4481276;32;32845;-84
2023/10/27 08:36:40;;;;;;;3.22;0.90;;;;;;;16.67;85.59;97148.66;4479478;32;32940;-85
2023/10/27 08:39:19;;;;;;;1.20;0.90;;;;;;;16.75;84.78;97141.88;4462733;32;33615;-85
2023/10/27 08:41:49;;;;;;;0.70;0.70;;;;;;;16.42;87.25;97125.22;4462875;32;34397;-84
2023/10/27 08:44:18;;;;;;;1.58;0.80;;;;;;;16.44;87.08;97112.03;4463514;32;34408;-83
2023/10/27 08:46:55;;;;;;;1.67;0.90;;;;;;;16.66;86.28;97107.72;4462099;32;33948;-82
2023/10/27 08:49:24;;;;;;;1.27;0.95;;;;;;;16.60;86.63;97101.22;4467873;32;33001;-83
2023/10/27 08:52:02;;;;;;;0.80;0.70;;;;;;;16.64;87.18;97095.56;4457388;32;34141;-81
2023/10/27 08:54:34;;;;;;;0.80;0.80;;;;;;;16.94;84.54;97096.75;4462802;32;34029;-82
2023/10/27 08:57:05;;;;;;;1.02;0.85;;;;;;;16.72;86.49;97086.28;4462083;32;33199;-84
2023/10/27 08:59:36;;;;;;;2.05;1.05;;;;;;;16.85;85.65;97077.38;4473661;31;33597;-82
2023/10/27 09:02:06;;;;;;;2.15;1.17;;;;;;;17.02;84.52;97077.78;4467086;32;33808;-84
2023/10/27 09:04:50;;;;;;;1.87;1.02;;;;;;;16.86;85.29;97075.56;4467641;32;34126;-84
2023/10/27 09:07:27;;;;;;;2.00;1.17;;;;;;;16.91;85.56;97069.97;4462181;32;34024;-82
2023/10/27 09:10:01;;;;;;;2.30;1.20;;;;;;;16.92;85.12;97058.56;4461973;32;34177;-84
2023/10/27 09:12:36;;;;;;;4.47;1.00;;;;;;;16.83;86.08;97057.50;4466849;32;34878;-82
2023/10/27 09:15:13;;;;;;;1.65;1.37;;;;;;;17.03;84.72;97054.09;4467641;32;34429;-84
2023/10/27 09:17:55;;;;;;;0.98;0.85;;;;;;;17.09;84.09;97046.69;4462375;32;33401;-84
2023/10/27 09:20:28;;;;;;;2.05;1.00;;;;;;;17.02;84.62;97046.38;4462638;32;33150;-81
2023/10/27 09:22:58;;;;;;;1.30;0.90;;;;;;;17.02;85.03;97039.34;4463523;32;33807;-82
2023/10/27 09:25:31;;;;;;;3.03;0.90;;;;;;;16.98;85.31;97039.69;4462342;32;34286;-83
2023/10/27 09:28:01;;;;;;;1.35;0.80;;;;;;;17.10;85.05;97027.41;4467274;32;32336;-81
2023/10/27 09:30:34;;;;;;;1.35;0.85;;;;;;;17.03;84.98;97021.81;4461983;32;33534;-82
2023/10/27 09:33:18;;;;;;;1.77;0.73;;;;;;;17.04;85.29;97023.50;4462990;32;33652;-82
2023/10/27 09:36:02;;;;;;;0.77;0.77;;;;;;;17.13;85.38;97006.19;4462493;32;34114;-82
2023/10/27 09:38:32;;;;;;;1.40;0.90;;;;;;;17.11;85.23;97010.75;4462072;32;34259;-82
2023/10/27 09:41:08;;;;;;;3.20;1.10;;;;;;;17.10;85.28;97004.66;4467581;32;33839;-82
2023/10/27 09:43:41;;;;;;;0.93;0.80;;;;;;;17.15;85.34;96993.78;4461985;32;34764;-82
2023/10/27 09:46:12;;;;;;;1.45;1.02;;;;;;;17.31;84.86;97006.47;4473693;32;33894;-83
2023/10/27 09:48:52;;;;;;;1.37;1.10;;;;;;;17.37;84.10;97000.69;4477631;32;33166;-82
2023/10/27 09:51:41;;;;;;;1.80;1.15;;;;;;;16.89;87.53;96970.59;4481791;32;34324;-82
2023/10/27 09:54:13;;;;;;;0.75;0.60;;;;;;;17.29;84.73;96969.88;4478072;32;35146;-84
2023/10/27 09:56:43;;;;;;;1.48;0.88;;;;;;;17.34;84.61;96986.06;4483316;32;34370;-81
2023/10/27 09:59:13;;;;;;;;;;;;;;;17.21;85.48;96969.72;4477564;32;33213;-82
2023/10/27 10:01:44;;;;;;;1.12;1.00;;;;;;;17.43;83.90;96959.06;4464515;32;33721;-83
2023/10/27 10:04:55;;;;;;;1.80;0.90;;;;;;;17.30;85.32;96955.84;4461910;32;33585;-81
2023/10/27 10:07:33;;;;;;;1.85;1.08;;;;;;;17.43;84.86;96966.94;4467371;32;33586;-82
2023/10/27 10:10:26;;;;;;;0.60;0.60;;;;;;;17.51;84.59;96955.81;4482973;32;32760;-81
2023/10/27 10:13:03;;;;;;;1.25;0.70;;;;;;;17.43;85.36;96943.34;4482314;32;33714;-81
2023/10/27 10:15:34;;;;;;;3.00;1.00;;;;;;;17.55;84.47;96954.59;4478105;32;34830;-81
2023/10/27 10:18:04;;;;;;;1.23;0.80;;;;;;;17.48;83.54;96946.41;4462665;32;32757;-81
2023/10/27 10:21:07;;;;;;;2.07;1.10;;;;;;;17.53;83.46;96938.16;4477332;32;33106;-80
2023/10/27 10:24:13;;;;;;;5.03;0.80;;;;;;;17.66;82.75;96922.19;4477495;32;33586;-80
2023/10/27 10:27:10;;;;;;;1.30;0.88;;;;;;;17.43;83.18;96939.91;4476696;32;33917;-81
2023/10/27 10:29:43;;;;;;;1.27;0.70;;;;;;;17.52;82.78;96943.50;4474842;31;34879;-79
2023/10/27 10:32:32;;;;;;;0.52;0.52;;;;;;;17.47;83.03;96931.66;4471050;32;32607;-81
2023/10/27 10:35:21;;;;;;;2.50;0.88;;;;;;;17.46;83.19;96923.91;4461408;32;34567;-81
2023/10/27 10:37:55;;;;;;;1.90;0.90;;;;;;;17.38;82.68;96926.38;4461315;32;35259;-82
2023/10/27 10:40:28;;;;;;;1.02;0.70;;;;;;;17.65;82.09;96917.94;4461328;32;34077;-81
2023/10/27 10:43:29;;;;;;;1.62;0.90;;;;;;;17.65;81.69;96915.31;4459841;32;34676;-82
2023/10/27 10:46:01;;;;;;;1.33;0.75;;;;;;;17.61;82.03;96919.97;4456560;32;33366;-83
2023/10/27 10:48:31;;;;;;;0.98;0.70;;;;;;;17.78;80.95;96900.16;4468530;32;33793;-81
2023/10/27 10:51:04;;;;;;;1.77;0.65;;;;;;;17.69;82.23;96907.03;4463342;32;33848;-81
2023/10/27 10:53:36;;;;;;;1.48;1.05;;;;;;;17.83;81.15;96897.16;4468177;32;33779;-82
2023/10/27 10:56:05;;;;;;;0.80;0.70;;;;;;;17.83;80.70;96900.63;4462948;32;34391;-83
2023/10/27 10:58:40;;;;;;;4.32;0.95;;;;;;;17.72;81.43;96884.16;4463078;32;35181;-81
2023/10/27 11:01:23;;;;;;;1.50;0.90;;;;;;;17.64;82.55;96877.78;4468614;32;33941;-81
2023/10/27 11:03:56;;;;;;;0.82;0.75;;;;;;;17.74;81.70;96876.97;4465358;32;33963;-83
2023/10/27 11:06:29;;;;;;;1.05;0.70;;;;;;;17.86;81.99;96870.69;4463497;32;33352;-82
2023/10/27 11:09:05;;;;;;;1.62;0.88;;;;;;;17.72;82.38;96871.88;4462777;32;33589;-80
2023/10/27 11:11:34;;;;;;;2.47;1.05;;;;;;;17.55;83.31;96881.19;4479404;32;33779;-84
2023/10/27 11:14:17;;;;;;;1.98;1.00;;;;;;;17.70;82.61;96886.91;4484417;32;33273;-83
2023/10/27 11:16:55;;;;;;;2.12;0.82;;;;;;;17.64;82.94;96900.56;4479293;32;33188;-84
2023/10/27 11:19:29;;;;;;;0.85;0.62;;;;;;;17.54;83.44;96899.66;4479279;32;33684;-84
2023/10/27 11:21:58;;;;;;;0.68;0.65;;;;;;;17.65;83.06;96928.41;4479943;32;34482;-85
2023/10/27 11:24:30;;;;;;;1.92;1.10;;;;;;;17.37;84.38;96946.50;4478613;32;33462;-85
2023/10/27 11:26:59;;;;;;;5.12;0.80;;;;;;;17.30;85.15;96948.00;4484264;32;33396;-84
2023/10/27 11:29:31;;;;;;;1.00;0.70;;;;;;;17.21;86.24;96977.56;4479274;32;34458;-83
2023/10/27 11:32:15;;;;;;;1.45;1.20;;;;;;;17.42;85.47;96981.03;4466137;32;33207;-84
2023/10/27 11:34:56;;;;;;;0.62;0.60;;;;;;;17.21;87.18;96980.19;4470701;32;32944;-84
2023/10/27 11:37:25;;;;;;;1.10;0.70;;;;;;;17.24;87.02;96983.37;4478487;32;33673;-84
2023/10/27 11:39:57;;;;;;;0.88;0.73;;;;;;;17.14;87.19;96972.00;4484476;32;34777;-83
2023/10/27 11:42:26;;;;;;;1.42;1.00;;;;;;;17.02;87.40;96965.19;4479212;32;34553;-84
2023/10/27 11:45:01;;;;;;;1.20;0.82;;;;;;;16.80;88.77;96964.31;4475931;32;34795;-84
2023/10/27 11:47:30;;;;;;;0.50;0.50;;;;;;;17.00;87.56;96954.81;4478785;32;33399;-83
2023/10/27 11:50:00;;;;;;;0.68;0.68;;;;;;;16.72;88.42;96966.72;4478796;32;33590;-84
2023/10/27 11:52:29;;;;;;;0.62;0.60;;;;;;;16.43;90.02;96980.38;4483857;32;34699;-83
2023/10/27 11:55:01;;;;;;;0.90;0.60;;;;;;;16.39;90.91;96986.78;4480068;32;33609;-83
2023/10/27 11:57:30;;;;;;;1.30;0.75;;;;;;;16.46;91.25;96979.28;4478425;32;34447;-85
2023/10/27 12:00:09;;;;;;;0.57;0.57;;;;;;;16.57;89.61;96975.78;4475521;31;33847;-83